sensor_id;sensor_type;location;lat;lon;timestamp;pressure;altitude;pressure_sealevel;temperature;humidity
54918;BME280;40818;50.562;7.454;2023-11-19T08:15:12;97284.56;;;8.30;100.00
54918;BME280;40818;50.562;7.454;2023-11-19T08:25:16;97286.81;;;8.89;100.00
54918;BME280;40818;50.562;7.454;2023-11-19T08:35:22;97297.22;;;9.28;100.00
54918;BME280;40818;50.562;7.454;2023-11-19T08:45:26;97297.84;;;9.57;100.00
54918;BME280;40818;50.562;7.454;2023-11-19T08:55:32;97315.25;;;9.81;100.00
54918;BME280;40818;50.562;7.454;2023-11-19T09:05:35;97315.34;;;9.79;100.00
54918;BME280;40818;50.562;7.454;2023-11-19T09:15:42;97317.03;;;10.17;100.00
54918;BME280;40818;50.562;7.454;2023-11-19T09:25:45;97317.66;;;10.21;100.00
54918;BME280;40818;50.562;7.454;2023-11-19T09:35:51;97340.25;;;10.32;100.00
54918;BME280;40818;50.562;7.454;2023-11-19T09:45:56;97324.72;;;10.80;100.00
54918;BME280;40818;50.562;7.454;2023-11-19T09:56:05;97333.19;;;11.53;100.00
54918;BME280;40818;50.562;7.454;2023-11-19T10:06:09;97331.31;;;11.89;100.00
54918;BME280;40818;50.562;7.454;2023-11-19T10:16:17;97318.78;;;12.17;100.00
54918;BME280;40818;50.562;7.454;2023-11-19T10:26:21;97308.56;;;12.48;100.00
54918;BME280;40818;50.562;7.454;2023-11-19T10:36:39;97302.19;;;13.06;100.00
54918;BME280;40818;50.562;7.454;2023-11-19T10:46:44;97301.84;;;12.34;100.00
54918;BME280;40818;50.562;7.454;2023-11-19T10:56:55;97291.13;;;12.16;100.00
54918;BME280;40818;50.562;7.454;2023-11-19T11:07:02;97287.44;;;12.19;100.00
54918;BME280;40818;50.562;7.454;2023-11-19T11:17:09;97297.69;;;12.32;100.00
54918;BME280;40818;50.562;7.454;2023-11-19T11:27:34;97284.00;;;12.29;96.63
54918;BME280;40818;50.562;7.454;2023-11-19T11:37:49;97296.91;;;12.63;99.73
54918;BME280;40818;50.562;7.454;2023-11-19T11:48:12;97279.66;;;12.62;93.68
54918;BME280;40818;50.562;7.454;2023-11-19T11:58:20;97275.38;;;12.29;94.63
54918;BME280;40818;50.562;7.454;2023-11-19T12:08:28;97250.34;;;11.71;93.43
54918;BME280;40818;50.562;7.454;2023-11-19T12:18:34;97259.91;;;11.48;99.21
54918;BME280;40818;50.562;7.454;2023-11-19T12:28:38;97252.72;;;11.52;99.89
54918;BME280;40818;50.562;7.454;2023-11-19T12:38:44;97239.34;;;11.56;100.00
54918;BME280;40818;50.562;7.454;2023-11-19T12:48:48;97232.75;;;11.52;100.00
54918;BME280;40818;50.562;7.454;2023-11-19T12:58:54;97213.59;;;11.53;100.00
54918;BME280;40818;50.562;7.454;2023-11-19T13:08:57;97215.53;;;11.40;100.00
54918;BME280;40818;50.562;7.454;2023-11-19T13:19:04;97211.72;;;11.33;100.00
54918;BME280;40818;50.562;7.454;2023-11-19T13:29:09;97197.53;;;11.14;100.00
54918;BME280;40818;50.562;7.454;2023-11-19T13:39:15;97209.56;;;10.92;100.00
54918;BME280;40818;50.562;7.454;2023-11-19T13:49:23;97211.53;;;10.42;100.00
54918;BME280;40818;50.562;7.454;2023-11-19T13:59:29;97200.69;;;10.37;100.00
54918;BME280;40818;50.562;7.454;2023-11-19T14:09:34;97186.69;;;10.27;100.00
54918;BME280;40818;50.562;7.454;2023-11-19T14:19:40;97184.03;;;10.15;100.00
54918;BME280;40818;50.562;7.454;2023-11-19T14:29:44;97181.81;;;9.98;100.00
54918;BME280;40818;50.562;7.454;2023-11-19T14:39:50;97185.63;;;9.81;100.00
54918;BME280;40818;50.562;7.454;2023-11-19T14:49:54;97184.22;;;9.64;100.00
54918;BME280;40818;50.562;7.454;2023-11-19T15:00:01;97185.06;;;9.64;100.00
54918;BME280;40818;50.562;7.454;2023-11-19T15:10:13;97203.13;;;9.53;100.00
54918;BME280;40818;50.562;7.454;2023-11-19T15:20:19;97212.28;;;9.33;100.00
54918;BME280;40818;50.562;7.454;2023-11-19T15:30:22;97224.19;;;9.22;100.00
54918;BME280;40818;50.562;7.454;2023-11-19T15:40:29;97214.97;;;9.18;100.00
54918;BME280;40818;50.562;7.454;2023-11-19T15:50:32;97222.72;;;9.18;100.00
54918;BME280;40818;50.562;7.454;2023-11-19T16:00:38;97216.09;;;9.14;100.00
54918;BME280;40818;50.562;7.454;2023-11-19T16:10:46;97229.25;;;9.11;100.00
54918;BME280;40818;50.562;7.454;2023-11-19T16:20:53;97226.38;;;9.16;100.00
54918;BME280;40818;50.562;7.454;2023-11-19T16:30:57;97209.47;;;9.10;100.00
54918;BME280;40818;50.562;7.454;2023-11-19T16:41:04;97228.03;;;9.04;100.00
54918;BME280;40818;50.562;7.454;2023-11-19T16:51:11;97244.81;;;8.98;100.00
54918;BME280;40818;50.562;7.454;2023-11-19T17:01:18;97257.00;;;8.83;100.00
54918;BME280;40818;50.562;7.454;2023-11-19T17:11:22;97247.06;;;8.77;100.00
54918;BME280;40818;50.562;7.454;2023-11-19T17:21:28;97257.31;;;8.79;100.00
54918;BME280;40818;50.562;7.454;2023-11-19T17:31:32;97251.22;;;8.80;100.00
54918;BME280;40818;50.562;7.454;2023-11-19T17:41:39;97244.47;;;8.77;100.00
54918;BME280;40818;50.562;7.454;2023-11-19T17:51:43;97234.72;;;8.68;100.00
54918;BME280;40818;50.562;7.454;2023-11-19T18:01:49;97214.00;;;8.68;100.00
54918;BME280;40818;50.562;7.454;2023-11-19T18:11:56;97227.16;;;8.65;100.00
54918;BME280;40818;50.562;7.454;2023-11-19T18:22:02;97213.09;;;8.69;100.00
54918;BME280;40818;50.562;7.454;2023-11-19T18:32:06;97219.94;;;8.70;100.00
54918;BME280;40818;50.562;7.454;2023-11-19T18:42:13;97214.53;;;8.73;100.00
54918;BME280;40818;50.562;7.454;2023-11-19T18:52:17;97214.22;;;8.78;100.00
54918;BME280;40818;50.562;7.454;2023-11-19T19:02:23;97218.38;;;8.80;100.00
54918;BME280;40818;50.562;7.454;2023-11-19T19:12:27;97222.63;;;8.81;100.00
54918;BME280;40818;50.562;7.454;2023-11-19T19:22:34;97225.13;;;8.83;100.00
54918;BME280;40818;50.562;7.454;2023-11-19T19:32:38;97214.88;;;8.81;100.00
54918;BME280;40818;50.562;7.454;2023-11-19T19:42:47;97217.47;;;8.81;100.00
54918;BME280;40818;50.562;7.454;2023-11-19T19:52:51;97210.72;;;8.79;100.00
54918;BME280;40818;50.562;7.454;2023-11-19T20:02:58;97215.59;;;8.83;100.00
54918;BME280;40818;50.562;7.454;2023-11-19T20:13:01;97205.97;;;8.85;100.00
54918;BME280;40818;50.562;7.454;2023-11-19T20:23:12;97201.50;;;8.87;100.00
54918;BME280;40818;50.562;7.454;2023-11-19T20:33:15;97201.28;;;8.91;100.00
54918;BME280;40818;50.562;7.454;2023-11-19T20:43:22;97207.91;;;8.95;100.00
